Terminal Aerodrome Forecast
Issued by NWS Duluth, MN

Home | Current Version | Previous Version | Text Only | Print | Product List | Glossary On
Versions: 1 2 3 4 5 6 7 8 9 10 11 12 13 14 15 16 17 18 19 20 21 22 23 24 25 26 27 28 29 30 31 32 33 34 35 36 37 38 39 40 41 42 43 44 45 46
000
FTUS43 KDLH 260500
TAFDLH
TAF
KDLH 260525Z 2606/2706 29013G20KT P6SM SCT028 OVC040
      TEMPO 2606/2608 SCT015 BKN023
     FM260900 29010KT 5SM BR BKN023
     FM261300 29008KT P6SM SCT045
     FM261600 30010G16KT P6SM SCT050
     FM261900 29013G20KT P6SM SCT040
     FM270100 27010KT P6SM SCT030=

USA.gov is the U.S. government's official web portal to all federal, state and local government web resources and services.